ADDS METAR Data INFO
IDs: Format: Raw Decoded Include TAF

Data at: 1510 UTC 21 Feb 2018

KEZF 211435Z AUTO 22013G18KT 10SM SCT020 BKN100 21/18 A3038 RMK AO2 T02060176
KEZF 211415Z AUTO 22011G17KT 10SM SCT018 SCT100 20/18 A3038 RMK AO2 T02030177
KEZF 211355Z AUTO 22011G18KT 10SM OVC016 19/18 A3039 RMK AO2 T01940175
KEZF 211335Z AUTO 22012G20KT 10SM OVC016 19/19 A3038 RMK AO2 T01900185
KEZF 211315Z AUTO 21010G15KT 10SM BKN016 OVC021 19/19 A3038 RMK AO2 T01880188
KEZF 211255Z AUTO 21011G19KT 10SM OVC013 19/19 A3038 RMK AO2 T01850185
KEZF 201515Z AUTO 21011KT 10SM SCT011 18/16 A3040 RMK AO2 T01750163
KEZF 201455Z AUTO 21011G16KT 10SM OVC009 17/16 A3041 RMK AO2 T01660162
KEZF 201435Z AUTO 21009G15KT 10SM BKN009 16/16 A3042 RMK AO2 T01640160
KEZF 201415Z AUTO 21012G18KT 10SM BKN009 16/16 A3041 RMK AO2 T01580158
KEZF 201355Z AUTO 21008G15KT 10SM SCT011 15/15 A3040 RMK AO2 T01510151
KEZF 201335Z AUTO 20009KT 10SM BKN011 15/15 A3040 RMK AO2 T01490149
KEZF 201315Z AUTO 20009G14KT 10SM OVC011 14/14 A3040 RMK AO2 T01410141
KEZF 201255Z AUTO 22010KT 10SM OVC011 14/14 A3040 RMK AO2 T01380138
KEZF 201235Z AUTO 22010G15KT 10SM OVC011 13/13 A3040 RMK AO2 T01330133
KEZF 201215Z AUTO 21008G14KT 10SM BKN013 BKN018 13/13 A3039 RMK AO2 T01290129
KEZF 201155Z AUTO 20005KT 10SM SCT013 BKN018 13/13 A3038 RMK AO2 70001 T01290129 10130 20107
KEZF 201135Z AUTO 21005KT 10SM SCT007 SCT014 OVC020 13/13 A3039 RMK AO2 T01260126
KEZF 201115Z AUTO 21008KT 10SM BKN007 OVC014 13/13 A3038 RMK AO2 T01250125
KEZF 201055Z AUTO 20010G15KT 10SM OVC007 13/13 A3037 RMK AO2 T01250125
KEZF 201035Z AUTO 21007KT 10SM OVC007 12/12 A3036 RMK AO2 T01240124
KEZF 201015Z AUTO 21008KT 10SM OVC007 12/12 A3035 RMK AO2 T01230123
KEZF 200955Z AUTO 21009KT 10SM OVC007 12/12 A3034 RMK AO2 T01220122
KEZF 200935Z AUTO 21009KT 10SM OVC005 12/12 A3034 RMK AO2 T01220122
KEZF 200915Z AUTO 21008KT 10SM OVC005 12/12 A3034 RMK AO2 T01200120
KEZF 200855Z AUTO 21008KT 10SM OVC005 12/12 A3034 RMK AO2 T01180118
KEZF 200835Z AUTO 21009KT 10SM OVC005 12/12 A3035 RMK AO2 T01160116
KEZF 200815Z AUTO 21008KT 10SM OVC005 12/12 A3035 RMK AO2 T01150115
KEZF 200755Z AUTO 21008KT 10SM OVC005 11/11 A3034 RMK AO2 T01130113
KEZF 200735Z AUTO 21007KT 10SM OVC005 11/11 A3035 RMK AO2 T01110111
KEZF 200715Z AUTO 21007KT 7SM OVC005 11/11 A3035 RMK AO2 T01100110
KEZF 200655Z AUTO 20008KT 7SM OVC005 11/11 A3036 RMK AO2 T01090109
KEZF 200635Z AUTO 21008KT 7SM OVC005 11/11 A3036 RMK AO2 T01070107
KEZF 200615Z AUTO 21009KT 7SM OVC005 11/11 A3036 RMK AO2 T01070107
KEZF 200555Z AUTO 21010G15KT 7SM OVC005 11/11 A3036 RMK AO2 T01080108 10108 20091 401080019
KEZF 200535Z AUTO 20009G16KT 10SM OVC005 11/11 A3035 RMK AO2 T01070107
KEZF 200515Z AUTO 20008KT 10SM OVC005 11/11 A3035 RMK AO2 T01070107
KEZF 200455Z AUTO 20008KT 10SM OVC007 11/11 A3036 RMK AO2 T01060106
KEZF 200435Z AUTO 20007KT 10SM OVC007 11/11 A3036 RMK AO2 T01050105
KEZF 200415Z AUTO 20008KT 10SM OVC007 11/11 A3036 RMK AO2 T01050105
KEZF 200355Z AUTO 21006KT 10SM OVC007 11/11 A3036 RMK AO2 T01050105
KEZF 200335Z AUTO 19006KT 10SM OVC007 10/10 A3036 RMK AO2 T01040104
KEZF 200315Z AUTO 20007KT 10SM OVC007 10/10 A3036 RMK AO2 T01030103